Salyer, California
Current Conditions -  °F | °C
As of 5:16 AM on Friday 24 Oct 2014 (Local Time) from KACV Reporting Station
Moderate Rain Moderate Rain  
Wind Chill: 55°   Ceiling: 3700
Heat Index: 55°   Visibility: 3mi
Dew Point: 54°   Wind: 3mph
Humidity: 96%   Direction: 40°NE
Pressure: 29.92"   Gusts: NA
Location:  40.89°N, 123.59°W
Report Text: KACV 241216Z AUTO 04003KT 3SM RA BR OVC037 13/12 A2992 RMK AO2 P0004 T01280122
Loading
Personal Weather Stations






























Interactive Weather Map
Tropical Storm Tracking
New forecast layout! Learn more

10-Day Weather Forecast

Advertisements
Track Severe Weather on mobile